sensor_id;sensor_type;location;lat;lon;timestamp;P1;durP1;ratioP1;P2;durP2;ratioP2
57643;SDS011;43474;46.510;6.686;2023-05-10T00:01:48;655.92;;;617.55;;
57643;SDS011;43474;46.510;6.686;2023-05-10T00:04:14;650.47;;;612.00;;
57643;SDS011;43474;46.510;6.686;2023-05-10T00:06:40;654.28;;;615.63;;
57643;SDS011;43474;46.510;6.686;2023-05-10T00:09:06;646.90;;;609.83;;
57643;SDS011;43474;46.510;6.686;2023-05-10T00:11:32;625.40;;;589.65;;
57643;SDS011;43474;46.510;6.686;2023-05-10T00:13:57;653.80;;;615.42;;
57643;SDS011;43474;46.510;6.686;2023-05-10T00:16:23;594.55;;;561.03;;
57643;SDS011;43474;46.510;6.686;2023-05-10T00:18:48;620.22;;;584.78;;
57643;SDS011;43474;46.510;6.686;2023-05-10T00:21:14;629.83;;;593.83;;
57643;SDS011;43474;46.510;6.686;2023-05-10T00:23:40;616.72;;;581.25;;
57643;SDS011;43474;46.510;6.686;2023-05-10T00:26:05;454.83;;;430.83;;
57643;SDS011;43474;46.510;6.686;2023-05-10T00:28:31;475.98;;;450.38;;
57643;SDS011;43474;46.510;6.686;2023-05-10T00:30:56;434.60;;;411.35;;
57643;SDS011;43474;46.510;6.686;2023-05-10T00:33:22;473.00;;;447.42;;
57643;SDS011;43474;46.510;6.686;2023-05-10T00:35:47;544.58;;;514.50;;
57643;SDS011;43474;46.510;6.686;2023-05-10T00:38:13;416.65;;;394.45;;
57643;SDS011;43474;46.510;6.686;2023-05-10T00:40:39;386.23;;;366.40;;
57643;SDS011;43474;46.510;6.686;2023-05-10T00:43:05;397.38;;;376.63;;
57643;SDS011;43474;46.510;6.686;2023-05-10T00:45:31;408.88;;;387.55;;
57643;SDS011;43474;46.510;6.686;2023-05-10T00:47:59;411.65;;;389.65;;
57643;SDS011;43474;46.510;6.686;2023-05-10T00:50:26;389.27;;;369.15;;
57643;SDS011;43474;46.510;6.686;2023-05-10T00:52:51;402.48;;;381.52;;
57643;SDS011;43474;46.510;6.686;2023-05-10T00:55:17;377.55;;;358.35;;
57643;SDS011;43474;46.510;6.686;2023-05-10T00:57:43;379.30;;;359.75;;
57643;SDS011;43474;46.510;6.686;2023-05-10T01:00:09;367.88;;;349.05;;
57643;SDS011;43474;46.510;6.686;2023-05-10T01:02:36;358.08;;;339.92;;
57643;SDS011;43474;46.510;6.686;2023-05-10T01:05:02;357.95;;;340.05;;
57643;SDS011;43474;46.510;6.686;2023-05-10T01:07:28;339.45;;;322.38;;
57643;SDS011;43474;46.510;6.686;2023-05-10T01:09:55;339.70;;;322.73;;
57643;SDS011;43474;46.510;6.686;2023-05-10T01:12:21;338.17;;;321.27;;
57643;SDS011;43474;46.510;6.686;2023-05-10T01:14:48;335.55;;;318.85;;
57643;SDS011;43474;46.510;6.686;2023-05-10T01:17:13;355.98;;;337.77;;
57643;SDS011;43474;46.510;6.686;2023-05-10T01:19:40;333.73;;;317.02;;
57643;SDS011;43474;46.510;6.686;2023-05-10T01:33:46;371.90;;;353.23;;
57643;SDS011;43474;46.510;6.686;2023-05-10T01:39:01;404.20;;;383.00;;
57643;SDS011;43474;46.510;6.686;2023-05-10T01:44:16;490.30;;;464.48;;
57643;SDS011;43474;46.510;6.686;2023-05-10T01:46:51;498.60;;;472.25;;
57643;SDS011;43474;46.510;6.686;2023-05-10T01:49:23;528.60;;;500.05;;
57643;SDS011;43474;46.510;6.686;2023-05-10T01:51:52;405.25;;;384.52;;
57643;SDS011;43474;46.510;6.686;2023-05-10T01:54:21;535.40;;;506.58;;
57643;SDS011;43474;46.510;6.686;2023-05-10T01:56:50;530.70;;;502.23;;
57643;SDS011;43474;46.510;6.686;2023-05-10T01:59:20;515.78;;;488.33;;
57643;SDS011;43474;46.510;6.686;2023-05-10T02:01:47;429.38;;;407.17;;
57643;SDS011;43474;46.510;6.686;2023-05-10T02:04:16;427.85;;;405.73;;
57643;SDS011;43474;46.510;6.686;2023-05-10T02:06:43;446.88;;;423.33;;
57643;SDS011;43474;46.510;6.686;2023-05-10T02:09:11;419.33;;;397.52;;
57643;SDS011;43474;46.510;6.686;2023-05-10T02:11:39;385.85;;;365.98;;
57643;SDS011;43474;46.510;6.686;2023-05-10T02:14:07;418.15;;;396.30;;
57643;SDS011;43474;46.510;6.686;2023-05-10T02:16:34;271.55;;;258.60;;
57643;SDS011;43474;46.510;6.686;2023-05-10T02:19:00;321.55;;;305.60;;
57643;SDS011;43474;46.510;6.686;2023-05-10T02:21:27;360.92;;;342.60;;
57643;SDS011;43474;46.510;6.686;2023-05-10T02:23:54;356.38;;;338.30;;
57643;SDS011;43474;46.510;6.686;2023-05-10T02:26:20;407.90;;;386.27;;
57643;SDS011;43474;46.510;6.686;2023-05-10T02:28:50;362.70;;;344.33;;
57643;SDS011;43474;46.510;6.686;2023-05-10T02:31:17;313.83;;;298.63;;
57643;SDS011;43474;46.510;6.686;2023-05-10T02:33:43;357.13;;;339.45;;
57643;SDS011;43474;46.510;6.686;2023-05-10T02:36:11;521.38;;;493.15;;
57643;SDS011;43474;46.510;6.686;2023-05-10T02:38:38;524.55;;;496.08;;
57643;SDS011;43474;46.510;6.686;2023-05-10T02:41:05;562.97;;;532.05;;
57643;SDS011;43474;46.510;6.686;2023-05-10T02:43:34;637.50;;;601.60;;
57643;SDS011;43474;46.510;6.686;2023-05-10T02:46:01;675.55;;;635.35;;
57643;SDS011;43474;46.510;6.686;2023-05-10T02:48:27;707.00;;;663.83;;
57643;SDS011;43474;46.510;6.686;2023-05-10T02:50:54;671.33;;;631.60;;
57643;SDS011;43474;46.510;6.686;2023-05-10T02:53:22;644.70;;;607.00;;
57643;SDS011;43474;46.510;6.686;2023-05-10T02:55:56;620.58;;;585.10;;
57643;SDS011;43474;46.510;6.686;2023-05-10T02:58:24;616.50;;;578.13;;
57643;SDS011;43474;46.510;6.686;2023-05-10T03:00:50;572.22;;;538.95;;
57643;SDS011;43474;46.510;6.686;2023-05-10T03:03:16;574.58;;;540.28;;
57643;SDS011;43474;46.510;6.686;2023-05-10T03:05:41;576.13;;;543.08;;
57643;SDS011;43474;46.510;6.686;2023-05-10T03:08:07;571.35;;;539.53;;
57643;SDS011;43474;46.510;6.686;2023-05-10T03:10:33;471.90;;;446.67;;
57643;SDS011;43474;46.510;6.686;2023-05-10T03:13:16;582.28;;;550.28;;
57643;SDS011;43474;46.510;6.686;2023-05-10T03:15:58;526.13;;;497.35;;
57643;SDS011;43474;46.510;6.686;2023-05-10T03:18:33;546.53;;;516.97;;
57643;SDS011;43474;46.510;6.686;2023-05-10T03:21:07;507.50;;;479.85;;
57643;SDS011;43474;46.510;6.686;2023-05-10T03:26:13;404.90;;;384.00;;
57643;SDS011;43474;46.510;6.686;2023-05-10T03:28:45;393.05;;;372.85;;
57643;SDS011;43474;46.510;6.686;2023-05-10T03:31:13;362.27;;;343.90;;
57643;SDS011;43474;46.510;6.686;2023-05-10T03:33:46;358.05;;;340.20;;
57643;SDS011;43474;46.510;6.686;2023-05-10T03:36:15;377.38;;;358.30;;
57643;SDS011;43474;46.510;6.686;2023-05-10T03:38:41;357.45;;;339.27;;
57643;SDS011;43474;46.510;6.686;2023-05-10T03:41:07;374.92;;;355.90;;
57643;SDS011;43474;46.510;6.686;2023-05-10T03:43:32;412.67;;;391.13;;
57643;SDS011;43474;46.510;6.686;2023-05-10T03:45:58;476.08;;;450.98;;
57643;SDS011;43474;46.510;6.686;2023-05-10T03:48:26;454.25;;;430.55;;
57643;SDS011;43474;46.510;6.686;2023-05-10T03:50:52;422.10;;;400.08;;
57643;SDS011;43474;46.510;6.686;2023-05-10T03:53:17;370.95;;;351.92;;
57643;SDS011;43474;46.510;6.686;2023-05-10T03:55:43;320.55;;;304.73;;
57643;SDS011;43474;46.510;6.686;2023-05-10T03:58:10;371.83;;;352.95;;
57643;SDS011;43474;46.510;6.686;2023-05-10T04:00:36;418.15;;;396.45;;
57643;SDS011;43474;46.510;6.686;2023-05-10T04:03:02;309.02;;;294.02;;
57643;SDS011;43474;46.510;6.686;2023-05-10T04:05:27;402.50;;;381.58;;
57643;SDS011;43474;46.510;6.686;2023-05-10T04:07:53;382.02;;;362.63;;
57643;SDS011;43474;46.510;6.686;2023-05-10T04:10:18;328.52;;;312.15;;
57643;SDS011;43474;46.510;6.686;2023-05-10T04:12:44;417.65;;;396.08;;
57643;SDS011;43474;46.510;6.686;2023-05-10T04:15:10;395.73;;;375.45;;
57643;SDS011;43474;46.510;6.686;2023-05-10T04:17:35;342.77;;;326.17;;
57643;SDS011;43474;46.510;6.686;2023-05-10T04:20:01;346.95;;;329.90;;
57643;SDS011;43474;46.510;6.686;2023-05-10T04:22:27;356.52;;;338.90;;
57643;SDS011;43474;46.510;6.686;2023-05-10T04:24:54;359.67;;;341.52;;
57643;SDS011;43474;46.510;6.686;2023-05-10T04:27:19;377.65;;;358.83;;
57643;SDS011;43474;46.510;6.686;2023-05-10T04:29:45;348.83;;;331.67;;
57643;SDS011;43474;46.510;6.686;2023-05-10T04:32:11;315.10;;;300.15;;
57643;SDS011;43474;46.510;6.686;2023-05-10T04:34:36;370.75;;;352.35;;
57643;SDS011;43474;46.510;6.686;2023-05-10T04:37:02;349.27;;;331.88;;
57643;SDS011;43474;46.510;6.686;2023-05-10T04:39:28;353.30;;;335.70;;
57643;SDS011;43474;46.510;6.686;2023-05-10T04:41:53;374.15;;;355.25;;
57643;SDS011;43474;46.510;6.686;2023-05-10T04:44:19;345.73;;;328.75;;
57643;SDS011;43474;46.510;6.686;2023-05-10T04:46:44;337.67;;;321.02;;
57643;SDS011;43474;46.510;6.686;2023-05-10T04:49:10;413.60;;;392.27;;
57643;SDS011;43474;46.510;6.686;2023-05-10T04:51:35;470.60;;;445.88;;
57643;SDS011;43474;46.510;6.686;2023-05-10T04:54:01;481.10;;;455.65;;
57643;SDS011;43474;46.510;6.686;2023-05-10T04:56:27;478.92;;;453.83;;
57643;SDS011;43474;46.510;6.686;2023-05-10T04:58:52;507.23;;;480.40;;
57643;SDS011;43474;46.510;6.686;2023-05-10T05:01:18;541.95;;;513.25;;
57643;SDS011;43474;46.510;6.686;2023-05-10T05:03:44;556.05;;;525.92;;
57643;SDS011;43474;46.510;6.686;2023-05-10T05:06:09;552.42;;;522.70;;
57643;SDS011;43474;46.510;6.686;2023-05-10T05:08:35;505.58;;;479.00;;
57643;SDS011;43474;46.510;6.686;2023-05-10T05:11:00;512.05;;;484.80;;
57643;SDS011;43474;46.510;6.686;2023-05-10T05:13:26;498.92;;;472.23;;
57643;SDS011;43474;46.510;6.686;2023-05-10T05:15:51;436.02;;;413.42;;
57643;SDS011;43474;46.510;6.686;2023-05-10T05:18:17;459.35;;;435.17;;
57643;SDS011;43474;46.510;6.686;2023-05-10T05:20:43;557.13;;;527.05;;
57643;SDS011;43474;46.510;6.686;2023-05-10T05:23:08;575.35;;;543.97;;
57643;SDS011;43474;46.510;6.686;2023-05-10T05:25:34;570.72;;;539.67;;
57643;SDS011;43474;46.510;6.686;2023-05-10T05:27:59;568.17;;;537.25;;
57643;SDS011;43474;46.510;6.686;2023-05-10T05:30:25;594.20;;;561.53;;
57643;SDS011;43474;46.510;6.686;2023-05-10T05:32:51;595.80;;;562.85;;
57643;SDS011;43474;46.510;6.686;2023-05-10T05:35:16;622.70;;;587.78;;
57643;SDS011;43474;46.510;6.686;2023-05-10T05:37:42;619.85;;;585.03;;
57643;SDS011;43474;46.510;6.686;2023-05-10T05:40:07;635.30;;;599.15;;
57643;SDS011;43474;46.510;6.686;2023-05-10T05:42:33;652.13;;;614.58;;
57643;SDS011;43474;46.510;6.686;2023-05-10T05:44:59;682.72;;;642.17;;
57643;SDS011;43474;46.510;6.686;2023-05-10T05:47:24;708.42;;;665.53;;
57643;SDS011;43474;46.510;6.686;2023-05-10T05:49:50;711.45;;;665.90;;
57643;SDS011;43474;46.510;6.686;2023-05-10T05:52:16;639.00;;;597.47;;
57643;SDS011;43474;46.510;6.686;2023-05-10T05:54:41;650.50;;;607.85;;
57643;SDS011;43474;46.510;6.686;2023-05-10T05:57:07;686.58;;;642.08;;
57643;SDS011;43474;46.510;6.686;2023-05-10T05:59:33;714.72;;;667.58;;
57643;SDS011;43474;46.510;6.686;2023-05-10T06:02:00;691.47;;;646.28;;
57643;SDS011;43474;46.510;6.686;2023-05-10T06:04:25;569.47;;;532.92;;
57643;SDS011;43474;46.510;6.686;2023-05-10T06:06:51;385.75;;;362.70;;
57643;SDS011;43474;46.510;6.686;2023-05-10T06:09:16;384.52;;;361.23;;
57643;SDS011;43474;46.510;6.686;2023-05-10T06:11:42;507.17;;;475.08;;
57643;SDS011;43474;46.510;6.686;2023-05-10T06:14:07;445.77;;;417.70;;
57643;SDS011;43474;46.510;6.686;2023-05-10T06:16:33;594.80;;;557.35;;
57643;SDS011;43474;46.510;6.686;2023-05-10T06:18:59;549.08;;;513.70;;
57643;SDS011;43474;46.510;6.686;2023-05-10T06:21:25;582.85;;;545.25;;
57643;SDS011;43474;46.510;6.686;2023-05-10T06:23:51;600.88;;;561.85;;
57643;SDS011;43474;46.510;6.686;2023-05-10T06:26:16;690.20;;;643.58;;
57643;SDS011;43474;46.510;6.686;2023-05-10T06:28:42;719.00;;;669.47;;
57643;SDS011;43474;46.510;6.686;2023-05-10T06:31:08;645.45;;;601.13;;
57643;SDS011;43474;46.510;6.686;2023-05-10T06:33:33;107.20;;;101.60;;
57643;SDS011;43474;46.510;6.686;2023-05-10T06:35:59;77.07;;;72.97;;
57643;SDS011;43474;46.510;6.686;2023-05-10T06:38:25;100.63;;;95.18;;
57643;SDS011;43474;46.510;6.686;2023-05-10T06:40:51;64.55;;;61.53;;
57643;SDS011;43474;46.510;6.686;2023-05-10T06:43:16;156.13;;;148.27;;
57643;SDS011;43474;46.510;6.686;2023-05-10T06:45:42;141.60;;;133.60;;
57643;SDS011;43474;46.510;6.686;2023-05-10T06:48:07;323.13;;;306.85;;
57643;SDS011;43474;46.510;6.686;2023-05-10T06:50:33;413.13;;;391.90;;
57643;SDS011;43474;46.510;6.686;2023-05-10T06:52:59;334.17;;;316.90;;
57643;SDS011;43474;46.510;6.686;2023-05-10T06:55:25;581.55;;;549.15;;
57643;SDS011;43474;46.510;6.686;2023-05-10T06:57:51;618.72;;;584.38;;
57643;SDS011;43474;46.510;6.686;2023-05-10T07:00:18;546.67;;;517.20;;
57643;SDS011;43474;46.510;6.686;2023-05-10T07:02:44;626.45;;;591.67;;
57643;SDS011;43474;46.510;6.686;2023-05-10T07:05:09;691.63;;;650.55;;
57643;SDS011;43474;46.510;6.686;2023-05-10T07:07:35;633.20;;;596.95;;
57643;SDS011;43474;46.510;6.686;2023-05-10T07:10:01;668.40;;;629.58;;
57643;SDS011;43474;46.510;6.686;2023-05-10T07:12:27;574.08;;;541.92;;
57643;SDS011;43474;46.510;6.686;2023-05-10T07:14:53;352.17;;;333.77;;
57643;SDS011;43474;46.510;6.686;2023-05-10T07:17:18;381.98;;;361.35;;
57643;SDS011;43474;46.510;6.686;2023-05-10T07:19:44;660.85;;;622.40;;
57643;SDS011;43474;46.510;6.686;2023-05-10T07:22:09;678.47;;;638.45;;
57643;SDS011;43474;46.510;6.686;2023-05-10T07:24:35;500.80;;;473.80;;
57643;SDS011;43474;46.510;6.686;2023-05-10T07:27:01;616.30;;;581.30;;
57643;SDS011;43474;46.510;6.686;2023-05-10T07:29:27;684.53;;;643.72;;
57643;SDS011;43474;46.510;6.686;2023-05-10T07:31:54;675.20;;;636.15;;
57643;SDS011;43474;46.510;6.686;2023-05-10T07:34:21;660.83;;;621.25;;
57643;SDS011;43474;46.510;6.686;2023-05-10T07:36:46;675.33;;;635.33;;
57643;SDS011;43474;46.510;6.686;2023-05-10T07:39:12;680.15;;;640.88;;
57643;SDS011;43474;46.510;6.686;2023-05-10T07:41:37;647.60;;;607.78;;
57643;SDS011;43474;46.510;6.686;2023-05-10T07:44:04;613.10;;;576.20;;
57643;SDS011;43474;46.510;6.686;2023-05-10T07:46:31;634.72;;;596.47;;
57643;SDS011;43474;46.510;6.686;2023-05-10T07:48:57;653.33;;;614.65;;
57643;SDS011;43474;46.510;6.686;2023-05-10T07:51:22;695.47;;;648.58;;
57643;SDS011;43474;46.510;6.686;2023-05-10T07:53:48;643.45;;;604.20;;
57643;SDS011;43474;46.510;6.686;2023-05-10T07:56:24;653.03;;;612.67;;
57643;SDS011;43474;46.510;6.686;2023-05-10T07:58:55;646.40;;;607.42;;
57643;SDS011;43474;46.510;6.686;2023-05-10T08:01:21;657.28;;;614.92;;
57643;SDS011;43474;46.510;6.686;2023-05-10T08:03:47;646.17;;;606.15;;
57643;SDS011;43474;46.510;6.686;2023-05-10T08:06:13;661.35;;;621.47;;
57643;SDS011;43474;46.510;6.686;2023-05-10T08:08:43;788.42;;;734.47;;
57643;SDS011;43474;46.510;6.686;2023-05-10T08:11:14;753.90;;;701.35;;
57643;SDS011;43474;46.510;6.686;2023-05-10T08:13:40;790.58;;;735.10;;
57643;SDS011;43474;46.510;6.686;2023-05-10T08:16:05;604.38;;;566.70;;
57643;SDS011;43474;46.510;6.686;2023-05-10T08:18:31;740.38;;;691.03;;
57643;SDS011;43474;46.510;6.686;2023-05-10T08:20:56;819.50;;;761.35;;
57643;SDS011;43474;46.510;6.686;2023-05-10T08:23:22;742.92;;;693.20;;
57643;SDS011;43474;46.510;6.686;2023-05-10T08:25:47;781.72;;;727.97;;
57643;SDS011;43474;46.510;6.686;2023-05-10T08:28:13;751.70;;;700.75;;
57643;SDS011;43474;46.510;6.686;2023-05-10T08:30:39;617.28;;;580.15;;
57643;SDS011;43474;46.510;6.686;2023-05-10T08:33:04;795.70;;;740.80;;
57643;SDS011;43474;46.510;6.686;2023-05-10T08:35:30;653.88;;;613.95;;
57643;SDS011;43474;46.510;6.686;2023-05-10T08:37:56;750.33;;;700.58;;
57643;SDS011;43474;46.510;6.686;2023-05-10T08:40:21;577.38;;;543.40;;
57643;SDS011;43474;46.510;6.686;2023-05-10T08:42:54;667.03;;;627.22;;
57643;SDS011;43474;46.510;6.686;2023-05-10T08:45:26;646.40;;;608.85;;
57643;SDS011;43474;46.510;6.686;2023-05-10T08:47:57;759.72;;;708.75;;
57643;SDS011;43474;46.510;6.686;2023-05-10T08:50:24;703.22;;;657.85;;
57643;SDS011;43474;46.510;6.686;2023-05-10T08:52:50;707.53;;;662.50;;
57643;SDS011;43474;46.510;6.686;2023-05-10T08:55:20;724.50;;;676.20;;
57643;SDS011;43474;46.510;6.686;2023-05-10T08:57:46;664.15;;;623.63;;
57643;SDS011;43474;46.510;6.686;2023-05-10T09:00:12;549.20;;;515.63;;
57643;SDS011;43474;46.510;6.686;2023-05-10T09:02:39;688.17;;;644.42;;
57643;SDS011;43474;46.510;6.686;2023-05-10T09:05:05;732.20;;;685.20;;
57643;SDS011;43474;46.510;6.686;2023-05-10T09:07:32;817.10;;;759.83;;
57643;SDS011;43474;46.510;6.686;2023-05-10T09:09:57;742.17;;;694.72;;
57643;SDS011;43474;46.510;6.686;2023-05-10T09:12:23;733.90;;;685.38;;
57643;SDS011;43474;46.510;6.686;2023-05-10T09:14:49;805.25;;;749.08;;
57643;SDS011;43474;46.510;6.686;2023-05-10T09:17:17;692.60;;;649.30;;
57643;SDS011;43474;46.510;6.686;2023-05-10T09:19:44;784.97;;;731.90;;
57643;SDS011;43474;46.510;6.686;2023-05-10T09:22:10;790.85;;;736.45;;
57643;SDS011;43474;46.510;6.686;2023-05-10T09:24:36;806.28;;;751.65;;
57643;SDS011;43474;46.510;6.686;2023-05-10T09:27:07;635.03;;;593.00;;
57643;SDS011;43474;46.510;6.686;2023-05-10T09:29:39;783.67;;;731.13;;
57643;SDS011;43474;46.510;6.686;2023-05-10T09:32:06;801.40;;;747.45;;
57643;SDS011;43474;46.510;6.686;2023-05-10T09:34:32;790.20;;;735.97;;
57643;SDS011;43474;46.510;6.686;2023-05-10T09:37:01;729.28;;;682.47;;
57643;SDS011;43474;46.510;6.686;2023-05-10T09:39:35;591.22;;;554.70;;
57643;SDS011;43474;46.510;6.686;2023-05-10T09:42:06;755.25;;;705.25;;
57643;SDS011;43474;46.510;6.686;2023-05-10T09:44:33;696.75;;;652.67;;
57643;SDS011;43474;46.510;6.686;2023-05-10T09:47:00;599.80;;;564.17;;
57643;SDS011;43474;46.510;6.686;2023-05-10T09:49:26;687.53;;;645.15;;
57643;SDS011;43474;46.510;6.686;2023-05-10T09:52:02;755.50;;;704.15;;
57643;SDS011;43474;46.510;6.686;2023-05-10T09:54:28;832.70;;;773.72;;
57643;SDS011;43474;46.510;6.686;2023-05-10T09:56:54;796.85;;;742.25;;
57643;SDS011;43474;46.510;6.686;2023-05-10T09:59:20;718.58;;;671.70;;
57643;SDS011;43474;46.510;6.686;2023-05-10T10:01:49;639.28;;;600.13;;
57643;SDS011;43474;46.510;6.686;2023-05-10T10:04:16;729.17;;;680.40;;
57643;SDS011;43474;46.510;6.686;2023-05-10T10:06:42;846.22;;;782.78;;
57643;SDS011;43474;46.510;6.686;2023-05-10T10:09:08;747.53;;;694.53;;
57643;SDS011;43474;46.510;6.686;2023-05-10T10:11:35;850.45;;;786.85;;
57643;SDS011;43474;46.510;6.686;2023-05-10T10:14:02;791.40;;;733.55;;
57643;SDS011;43474;46.510;6.686;2023-05-10T10:16:28;794.03;;;737.38;;
57643;SDS011;43474;46.510;6.686;2023-05-10T10:18:55;813.97;;;755.05;;
57643;SDS011;43474;46.510;6.686;2023-05-10T10:21:21;680.88;;;637.33;;
57643;SDS011;43474;46.510;6.686;2023-05-10T10:23:47;617.88;;;580.25;;
57643;SDS011;43474;46.510;6.686;2023-05-10T10:26:13;592.03;;;557.90;;
57643;SDS011;43474;46.510;6.686;2023-05-10T10:28:44;652.85;;;612.42;;
57643;SDS011;43474;46.510;6.686;2023-05-10T10:31:40;569.65;;;537.20;;
57643;SDS011;43474;46.510;6.686;2023-05-10T10:34:17;516.00;;;488.13;;
57643;SDS011;43474;46.510;6.686;2023-05-10T10:39:18;511.65;;;483.00;;
57643;SDS011;43474;46.510;6.686;2023-05-10T10:41:52;470.88;;;445.35;;
57643;SDS011;43474;46.510;6.686;2023-05-10T10:47:07;343.80;;;326.50;;
57643;SDS011;43474;46.510;6.686;2023-05-10T10:52:37;305.77;;;290.58;;
57643;SDS011;43474;46.510;6.686;2023-05-10T10:55:10;353.45;;;335.33;;
57643;SDS011;43474;46.510;6.686;2023-05-10T11:00:25;438.52;;;415.05;;
57643;SDS011;43474;46.510;6.686;2023-05-10T11:02:53;373.73;;;354.23;;
57643;SDS011;43474;46.510;6.686;2023-05-10T11:07:59;242.02;;;230.52;;
57643;SDS011;43474;46.510;6.686;2023-05-10T11:10:26;386.05;;;365.65;;
57643;SDS011;43474;46.510;6.686;2023-05-10T11:15:32;495.80;;;467.48;;
57643;SDS011;43474;46.510;6.686;2023-05-10T11:17:59;355.90;;;337.60;;
57643;SDS011;43474;46.510;6.686;2023-05-10T11:20:28;441.55;;;417.20;;
57643;SDS011;43474;46.510;6.686;2023-05-10T11:23:10;412.95;;;390.95;;
57643;SDS011;43474;46.510;6.686;2023-05-10T11:25:47;361.58;;;343.27;;
57643;SDS011;43474;46.510;6.686;2023-05-10T11:28:16;246.48;;;234.75;;
57643;SDS011;43474;46.510;6.686;2023-05-10T11:30:43;290.17;;;276.00;;
57643;SDS011;43474;46.510;6.686;2023-05-10T11:33:09;367.70;;;349.35;;
57643;SDS011;43474;46.510;6.686;2023-05-10T11:35:41;378.00;;;358.73;;
57643;SDS011;43474;46.510;6.686;2023-05-10T11:38:07;393.55;;;373.45;;
57643;SDS011;43474;46.510;6.686;2023-05-10T11:40:34;273.17;;;260.15;;
57643;SDS011;43474;46.510;6.686;2023-05-10T11:43:01;297.55;;;283.30;;
57643;SDS011;43474;46.510;6.686;2023-05-10T11:45:27;286.88;;;272.63;;
57643;SDS011;43474;46.510;6.686;2023-05-10T11:47:55;368.00;;;349.30;;
57643;SDS011;43474;46.510;6.686;2023-05-10T11:50:22;248.38;;;236.82;;
57643;SDS011;43474;46.510;6.686;2023-05-10T11:52:52;233.82;;;222.73;;
57643;SDS011;43474;46.510;6.686;2023-05-10T11:55:17;227.77;;;217.15;;
57643;SDS011;43474;46.510;6.686;2023-05-10T11:57:43;214.65;;;204.75;;
57643;SDS011;43474;46.510;6.686;2023-05-10T12:00:11;165.70;;;158.20;;
57643;SDS011;43474;46.510;6.686;2023-05-10T12:02:40;140.30;;;133.98;;
57643;SDS011;43474;46.510;6.686;2023-05-10T12:05:05;201.05;;;191.55;;
57643;SDS011;43474;46.510;6.686;2023-05-10T12:07:32;147.73;;;140.85;;
57643;SDS011;43474;46.510;6.686;2023-05-10T12:10:07;107.70;;;102.60;;
57643;SDS011;43474;46.510;6.686;2023-05-10T12:12:41;166.63;;;158.82;;
57643;SDS011;43474;46.510;6.686;2023-05-10T12:15:24;227.23;;;216.45;;
57643;SDS011;43474;46.510;6.686;2023-05-10T12:17:50;150.73;;;143.80;;
57643;SDS011;43474;46.510;6.686;2023-05-10T12:23:00;245.88;;;234.02;;
57643;SDS011;43474;46.510;6.686;2023-05-10T12:25:35;279.33;;;265.60;;
57643;SDS011;43474;46.510;6.686;2023-05-10T12:28:07;137.23;;;130.93;;
57643;SDS011;43474;46.510;6.686;2023-05-10T12:30:34;204.02;;;194.50;;
57643;SDS011;43474;46.510;6.686;2023-05-10T12:33:01;124.03;;;118.22;;
57643;SDS011;43474;46.510;6.686;2023-05-10T12:35:31;138.15;;;131.85;;
57643;SDS011;43474;46.510;6.686;2023-05-10T12:37:57;112.07;;;107.05;;
57643;SDS011;43474;46.510;6.686;2023-05-10T12:40:23;161.93;;;154.35;;
57643;SDS011;43474;46.510;6.686;2023-05-10T12:42:48;131.95;;;125.88;;
57643;SDS011;43474;46.510;6.686;2023-05-10T12:45:14;103.97;;;99.20;;
57643;SDS011;43474;46.510;6.686;2023-05-10T12:47:41;88.32;;;84.32;;
57643;SDS011;43474;46.510;6.686;2023-05-10T12:50:07;146.52;;;139.85;;
57643;SDS011;43474;46.510;6.686;2023-05-10T12:52:33;205.18;;;195.63;;
57643;SDS011;43474;46.510;6.686;2023-05-10T12:54:58;346.95;;;329.88;;
57643;SDS011;43474;46.510;6.686;2023-05-10T12:57:25;340.33;;;323.90;;
57643;SDS011;43474;46.510;6.686;2023-05-10T12:59:50;338.50;;;322.02;;
57643;SDS011;43474;46.510;6.686;2023-05-10T13:02:16;296.33;;;281.85;;
57643;SDS011;43474;46.510;6.686;2023-05-10T13:04:46;207.20;;;197.73;;
57643;SDS011;43474;46.510;6.686;2023-05-10T13:07:12;176.65;;;168.70;;
57643;SDS011;43474;46.510;6.686;2023-05-10T13:09:37;230.80;;;219.75;;
57643;SDS011;43474;46.510;6.686;2023-05-10T13:12:03;216.65;;;206.73;;
57643;SDS011;43474;46.510;6.686;2023-05-10T13:14:29;272.55;;;259.55;;
57643;SDS011;43474;46.510;6.686;2023-05-10T13:16:55;243.27;;;231.75;;
57643;SDS011;43474;46.510;6.686;2023-05-10T13:19:20;264.65;;;252.60;;
57643;SDS011;43474;46.510;6.686;2023-05-10T13:21:46;352.38;;;334.98;;
57643;SDS011;43474;46.510;6.686;2023-05-10T13:24:12;313.13;;;297.50;;
57643;SDS011;43474;46.510;6.686;2023-05-10T13:26:39;358.08;;;340.23;;
57643;SDS011;43474;46.510;6.686;2023-05-10T13:29:05;265.83;;;253.60;;
57643;SDS011;43474;46.510;6.686;2023-05-10T13:31:31;278.90;;;265.20;;
57643;SDS011;43474;46.510;6.686;2023-05-10T13:33:57;412.90;;;391.33;;
57643;SDS011;43474;46.510;6.686;2023-05-10T13:36:23;282.85;;;269.30;;
57643;SDS011;43474;46.510;6.686;2023-05-10T13:38:48;316.70;;;300.98;;
57643;SDS011;43474;46.510;6.686;2023-05-10T13:41:14;327.40;;;311.58;;
57643;SDS011;43474;46.510;6.686;2023-05-10T13:43:39;326.75;;;310.80;;
57643;SDS011;43474;46.510;6.686;2023-05-10T13:46:05;262.20;;;250.02;;
57643;SDS011;43474;46.510;6.686;2023-05-10T13:48:31;313.83;;;298.70;;
57643;SDS011;43474;46.510;6.686;2023-05-10T13:50:56;314.35;;;299.35;;
57643;SDS011;43474;46.510;6.686;2023-05-10T13:53:22;191.45;;;182.52;;
57643;SDS011;43474;46.510;6.686;2023-05-10T13:55:48;231.70;;;220.93;;
57643;SDS011;43474;46.510;6.686;2023-05-10T13:58:14;190.15;;;181.57;;
57643;SDS011;43474;46.510;6.686;2023-05-10T14:00:40;240.02;;;228.50;;
57643;SDS011;43474;46.510;6.686;2023-05-10T14:03:05;289.23;;;275.38;;
57643;SDS011;43474;46.510;6.686;2023-05-10T14:05:32;276.10;;;262.70;;
57643;SDS011;43474;46.510;6.686;2023-05-10T14:07:57;224.70;;;214.48;;
57643;SDS011;43474;46.510;6.686;2023-05-10T14:10:23;248.15;;;236.73;;
57643;SDS011;43474;46.510;6.686;2023-05-10T14:12:49;272.48;;;259.33;;
57643;SDS011;43474;46.510;6.686;2023-05-10T14:15:15;219.80;;;209.57;;
57643;SDS011;43474;46.510;6.686;2023-05-10T14:17:40;230.18;;;219.45;;
57643;SDS011;43474;46.510;6.686;2023-05-10T14:20:06;251.10;;;239.32;;
57643;SDS011;43474;46.510;6.686;2023-05-10T14:22:32;173.40;;;165.52;;
57643;SDS011;43474;46.510;6.686;2023-05-10T14:24:58;136.13;;;129.93;;
57643;SDS011;43474;46.510;6.686;2023-05-10T14:27:23;177.52;;;169.18;;
57643;SDS011;43474;46.510;6.686;2023-05-10T14:29:49;170.65;;;162.80;;
57643;SDS011;43474;46.510;6.686;2023-05-10T14:32:15;198.38;;;189.10;;
57643;SDS011;43474;46.510;6.686;2023-05-10T14:34:40;295.70;;;281.20;;